sensor_id;sensor_type;location;lat;lon;timestamp;temperature;humidity
22491;DHT22;11412;50.802;4.350;2023-03-23T00:01:17;14.50;99.90
22491;DHT22;11412;50.802;4.350;2023-03-23T00:03:46;14.30;99.90
22491;DHT22;11412;50.802;4.350;2023-03-23T00:06:13;14.30;99.90
22491;DHT22;11412;50.802;4.350;2023-03-23T00:08:44;14.30;99.90
22491;DHT22;11412;50.802;4.350;2023-03-23T00:11:21;14.20;99.90
22491;DHT22;11412;50.802;4.350;2023-03-23T00:13:49;14.30;99.90
22491;DHT22;11412;50.802;4.350;2023-03-23T00:16:18;14.40;99.90
22491;DHT22;11412;50.802;4.350;2023-03-23T00:18:49;14.40;99.90
22491;DHT22;11412;50.802;4.350;2023-03-23T00:21:25;14.30;99.90
22491;DHT22;11412;50.802;4.350;2023-03-23T00:24:10;14.40;99.90
22491;DHT22;11412;50.802;4.350;2023-03-23T00:26:38;14.30;99.90
22491;DHT22;11412;50.802;4.350;2023-03-23T00:29:08;14.40;99.90
22491;DHT22;11412;50.802;4.350;2023-03-23T00:31:39;14.30;99.90
22491;DHT22;11412;50.802;4.350;2023-03-23T00:34:05;14.30;99.90
22491;DHT22;11412;50.802;4.350;2023-03-23T00:36:32;14.20;99.90
22491;DHT22;11412;50.802;4.350;2023-03-23T00:39:03;14.20;99.90
22491;DHT22;11412;50.802;4.350;2023-03-23T00:41:30;14.20;99.90
22491;DHT22;11412;50.802;4.350;2023-03-23T00:43:57;14.20;99.90
22491;DHT22;11412;50.802;4.350;2023-03-23T00:46:26;14.10;99.90
22491;DHT22;11412;50.802;4.350;2023-03-23T00:48:54;14.10;99.90
22491;DHT22;11412;50.802;4.350;2023-03-23T00:51:19;14.20;99.90
22491;DHT22;11412;50.802;4.350;2023-03-23T00:53:46;14.10;99.90
22491;DHT22;11412;50.802;4.350;2023-03-23T00:56:13;14.20;99.90
22491;DHT22;11412;50.802;4.350;2023-03-23T00:58:39;14.20;99.90
22491;DHT22;11412;50.802;4.350;2023-03-23T01:01:05;14.20;99.90
22491;DHT22;11412;50.802;4.350;2023-03-23T01:03:31;14.10;99.90
22491;DHT22;11412;50.802;4.350;2023-03-23T01:05:57;14.20;99.90
22491;DHT22;11412;50.802;4.350;2023-03-23T01:08:24;14.20;99.90
22491;DHT22;11412;50.802;4.350;2023-03-23T01:10:50;14.20;99.90
22491;DHT22;11412;50.802;4.350;2023-03-23T01:13:16;14.10;99.90
22491;DHT22;11412;50.802;4.350;2023-03-23T01:15:43;14.20;99.90
22491;DHT22;11412;50.802;4.350;2023-03-23T01:18:10;14.20;99.90
22491;DHT22;11412;50.802;4.350;2023-03-23T01:20:36;14.20;99.90
22491;DHT22;11412;50.802;4.350;2023-03-23T01:23:03;14.20;99.90
22491;DHT22;11412;50.802;4.350;2023-03-23T01:25:35;14.20;99.90
22491;DHT22;11412;50.802;4.350;2023-03-23T01:28:01;14.20;99.90
22491;DHT22;11412;50.802;4.350;2023-03-23T01:30:27;14.20;99.90
22491;DHT22;11412;50.802;4.350;2023-03-23T01:32:54;14.20;99.90
22491;DHT22;11412;50.802;4.350;2023-03-23T01:35:20;14.10;99.90
22491;DHT22;11412;50.802;4.350;2023-03-23T01:37:46;14.10;99.90
22491;DHT22;11412;50.802;4.350;2023-03-23T01:40:14;14.00;99.90
22491;DHT22;11412;50.802;4.350;2023-03-23T01:42:40;14.00;99.90
22491;DHT22;11412;50.802;4.350;2023-03-23T01:48:03;14.20;99.90
22491;DHT22;11412;50.802;4.350;2023-03-23T01:50:33;14.20;99.90
22491;DHT22;11412;50.802;4.350;2023-03-23T01:53:01;14.00;99.90
22491;DHT22;11412;50.802;4.350;2023-03-23T01:55:30;13.90;99.90
22491;DHT22;11412;50.802;4.350;2023-03-23T01:57:56;14.00;99.90
22491;DHT22;11412;50.802;4.350;2023-03-23T02:00:23;14.00;99.90
22491;DHT22;11412;50.802;4.350;2023-03-23T02:02:50;14.10;99.90
22491;DHT22;11412;50.802;4.350;2023-03-23T02:07:54;14.10;99.90
22491;DHT22;11412;50.802;4.350;2023-03-23T02:10:24;14.00;99.90
22491;DHT22;11412;50.802;4.350;2023-03-23T02:12:49;14.10;99.90
22491;DHT22;11412;50.802;4.350;2023-03-23T02:15:16;14.10;99.90
22491;DHT22;11412;50.802;4.350;2023-03-23T02:17:51;14.10;99.90
22491;DHT22;11412;50.802;4.350;2023-03-23T02:28:19;13.90;99.90
22491;DHT22;11412;50.802;4.350;2023-03-23T02:33:44;14.00;99.90
22491;DHT22;11412;50.802;4.350;2023-03-23T02:36:21;14.00;99.90
22491;DHT22;11412;50.802;4.350;2023-03-23T02:39:09;14.10;99.90
22491;DHT22;11412;50.802;4.350;2023-03-23T02:41:47;14.10;99.90
22491;DHT22;11412;50.802;4.350;2023-03-23T02:44:15;14.10;99.90
22491;DHT22;11412;50.802;4.350;2023-03-23T02:46:42;14.10;99.90
22491;DHT22;11412;50.802;4.350;2023-03-23T02:49:11;14.00;99.90
22491;DHT22;11412;50.802;4.350;2023-03-23T02:51:39;14.10;99.90
22491;DHT22;11412;50.802;4.350;2023-03-23T02:54:05;14.00;99.90
22491;DHT22;11412;50.802;4.350;2023-03-23T02:56:32;14.00;99.90
22491;DHT22;11412;50.802;4.350;2023-03-23T02:58:59;13.90;99.90
22491;DHT22;11412;50.802;4.350;2023-03-23T03:03:50;14.00;99.90
22491;DHT22;11412;50.802;4.350;2023-03-23T03:06:32;14.10;99.90
22491;DHT22;11412;50.802;4.350;2023-03-23T03:09:18;14.10;99.90
22491;DHT22;11412;50.802;4.350;2023-03-23T03:11:50;14.00;99.90
22491;DHT22;11412;50.802;4.350;2023-03-23T03:14:27;13.90;99.90
22491;DHT22;11412;50.802;4.350;2023-03-23T03:17:06;13.90;99.90
22491;DHT22;11412;50.802;4.350;2023-03-23T03:19:38;14.00;99.90
22491;DHT22;11412;50.802;4.350;2023-03-23T03:22:06;14.00;99.90
22491;DHT22;11412;50.802;4.350;2023-03-23T03:24:35;14.10;99.90
22491;DHT22;11412;50.802;4.350;2023-03-23T03:27:06;14.00;99.90
22491;DHT22;11412;50.802;4.350;2023-03-23T03:29:37;14.10;99.90
22491;DHT22;11412;50.802;4.350;2023-03-23T03:32:10;14.10;99.90
22491;DHT22;11412;50.802;4.350;2023-03-23T03:34:36;14.00;99.90
22491;DHT22;11412;50.802;4.350;2023-03-23T03:37:04;14.00;99.90
22491;DHT22;11412;50.802;4.350;2023-03-23T03:39:34;14.10;99.90
22491;DHT22;11412;50.802;4.350;2023-03-23T03:42:01;14.20;99.90
22491;DHT22;11412;50.802;4.350;2023-03-23T03:44:27;14.00;99.90
22491;DHT22;11412;50.802;4.350;2023-03-23T03:46:52;14.10;99.90
22491;DHT22;11412;50.802;4.350;2023-03-23T03:49:18;14.10;99.90
22491;DHT22;11412;50.802;4.350;2023-03-23T03:51:44;14.20;99.90
22491;DHT22;11412;50.802;4.350;2023-03-23T03:54:10;14.20;99.90
22491;DHT22;11412;50.802;4.350;2023-03-23T03:56:37;14.10;99.90
22491;DHT22;11412;50.802;4.350;2023-03-23T03:59:07;14.10;99.90
22491;DHT22;11412;50.802;4.350;2023-03-23T04:01:34;14.10;99.90
22491;DHT22;11412;50.802;4.350;2023-03-23T04:04:00;14.00;99.90
22491;DHT22;11412;50.802;4.350;2023-03-23T04:06:25;14.00;99.90
22491;DHT22;11412;50.802;4.350;2023-03-23T04:08:54;14.00;99.90
22491;DHT22;11412;50.802;4.350;2023-03-23T04:11:20;14.00;99.90
22491;DHT22;11412;50.802;4.350;2023-03-23T04:13:46;14.00;99.90
22491;DHT22;11412;50.802;4.350;2023-03-23T04:16:12;14.00;99.90
22491;DHT22;11412;50.802;4.350;2023-03-23T04:18:38;13.90;99.90
22491;DHT22;11412;50.802;4.350;2023-03-23T04:21:05;13.80;99.90
22491;DHT22;11412;50.802;4.350;2023-03-23T04:23:33;13.90;99.90
22491;DHT22;11412;50.802;4.350;2023-03-23T04:26:00;13.90;99.90
22491;DHT22;11412;50.802;4.350;2023-03-23T04:28:27;13.80;99.90
22491;DHT22;11412;50.802;4.350;2023-03-23T04:30:54;13.80;99.90
22491;DHT22;11412;50.802;4.350;2023-03-23T04:33:24;13.80;99.90
22491;DHT22;11412;50.802;4.350;2023-03-23T04:35:55;13.80;99.90
22491;DHT22;11412;50.802;4.350;2023-03-23T04:38:23;13.80;99.90
22491;DHT22;11412;50.802;4.350;2023-03-23T04:40:51;13.70;99.90
22491;DHT22;11412;50.802;4.350;2023-03-23T04:43:18;13.70;99.90
22491;DHT22;11412;50.802;4.350;2023-03-23T04:45:57;13.70;99.90
22491;DHT22;11412;50.802;4.350;2023-03-23T04:48:30;13.70;99.90
22491;DHT22;11412;50.802;4.350;2023-03-23T04:50:56;13.80;99.90
22491;DHT22;11412;50.802;4.350;2023-03-23T04:53:21;13.70;99.90
22491;DHT22;11412;50.802;4.350;2023-03-23T04:55:48;13.80;99.90
22491;DHT22;11412;50.802;4.350;2023-03-23T04:58:15;13.80;99.90
22491;DHT22;11412;50.802;4.350;2023-03-23T05:00:42;13.80;99.90
22491;DHT22;11412;50.802;4.350;2023-03-23T05:03:16;13.80;99.90
22491;DHT22;11412;50.802;4.350;2023-03-23T05:05:42;13.90;99.90
22491;DHT22;11412;50.802;4.350;2023-03-23T05:08:07;13.90;99.90
22491;DHT22;11412;50.802;4.350;2023-03-23T05:10:33;13.80;99.90
22491;DHT22;11412;50.802;4.350;2023-03-23T05:12:59;13.60;99.90
22491;DHT22;11412;50.802;4.350;2023-03-23T05:15:25;13.70;99.90
22491;DHT22;11412;50.802;4.350;2023-03-23T05:17:53;13.60;99.90
22491;DHT22;11412;50.802;4.350;2023-03-23T05:20:19;13.70;99.90
22491;DHT22;11412;50.802;4.350;2023-03-23T05:22:46;13.70;99.90
22491;DHT22;11412;50.802;4.350;2023-03-23T05:25:15;13.60;99.90
22491;DHT22;11412;50.802;4.350;2023-03-23T05:27:41;13.60;99.90
22491;DHT22;11412;50.802;4.350;2023-03-23T05:30:14;13.70;99.90
22491;DHT22;11412;50.802;4.350;2023-03-23T05:32:44;13.70;99.90
22491;DHT22;11412;50.802;4.350;2023-03-23T05:35:11;13.80;99.90
22491;DHT22;11412;50.802;4.350;2023-03-23T05:37:37;13.80;99.90
22491;DHT22;11412;50.802;4.350;2023-03-23T05:40:05;13.70;99.90
22491;DHT22;11412;50.802;4.350;2023-03-23T05:42:33;13.80;99.90
22491;DHT22;11412;50.802;4.350;2023-03-23T05:45:00;13.70;99.90
22491;DHT22;11412;50.802;4.350;2023-03-23T05:47:26;13.80;99.90
22491;DHT22;11412;50.802;4.350;2023-03-23T05:49:52;13.70;99.90
22491;DHT22;11412;50.802;4.350;2023-03-23T05:52:19;13.80;99.90
22491;DHT22;11412;50.802;4.350;2023-03-23T05:54:44;13.70;99.90
22491;DHT22;11412;50.802;4.350;2023-03-23T05:57:10;13.70;99.90
22491;DHT22;11412;50.802;4.350;2023-03-23T05:59:36;13.70;99.90
22491;DHT22;11412;50.802;4.350;2023-03-23T06:02:03;13.70;99.90
22491;DHT22;11412;50.802;4.350;2023-03-23T06:04:29;13.70;99.90
22491;DHT22;11412;50.802;4.350;2023-03-23T06:06:55;13.70;99.90
22491;DHT22;11412;50.802;4.350;2023-03-23T06:09:21;13.70;99.90
22491;DHT22;11412;50.802;4.350;2023-03-23T06:11:48;13.60;99.90
22491;DHT22;11412;50.802;4.350;2023-03-23T06:14:14;13.60;99.90
22491;DHT22;11412;50.802;4.350;2023-03-23T06:16:40;13.70;99.90
22491;DHT22;11412;50.802;4.350;2023-03-23T06:19:06;13.60;99.90
22491;DHT22;11412;50.802;4.350;2023-03-23T06:21:32;13.70;99.90
22491;DHT22;11412;50.802;4.350;2023-03-23T06:23:58;13.80;99.90
22491;DHT22;11412;50.802;4.350;2023-03-23T06:26:36;13.80;99.90
22491;DHT22;11412;50.802;4.350;2023-03-23T06:29:03;13.70;99.90
22491;DHT22;11412;50.802;4.350;2023-03-23T06:31:41;13.90;99.90
22491;DHT22;11412;50.802;4.350;2023-03-23T06:34:08;13.90;99.90
22491;DHT22;11412;50.802;4.350;2023-03-23T06:36:35;13.80;99.90
22491;DHT22;11412;50.802;4.350;2023-03-23T06:39:02;13.80;99.90
22491;DHT22;11412;50.802;4.350;2023-03-23T06:41:30;13.90;99.90
22491;DHT22;11412;50.802;4.350;2023-03-23T06:43:56;13.80;99.90
22491;DHT22;11412;50.802;4.350;2023-03-23T06:46:21;13.60;99.90
22491;DHT22;11412;50.802;4.350;2023-03-23T06:48:47;13.40;99.90
22491;DHT22;11412;50.802;4.350;2023-03-23T06:51:16;13.60;99.90
22491;DHT22;11412;50.802;4.350;2023-03-23T06:53:42;13.60;99.90
22491;DHT22;11412;50.802;4.350;2023-03-23T06:56:08;13.60;99.90
22491;DHT22;11412;50.802;4.350;2023-03-23T06:58:33;13.50;99.90
22491;DHT22;11412;50.802;4.350;2023-03-23T07:01:00;13.50;99.90
22491;DHT22;11412;50.802;4.350;2023-03-23T07:03:26;13.40;99.90
22491;DHT22;11412;50.802;4.350;2023-03-23T07:05:53;13.40;99.90
22491;DHT22;11412;50.802;4.350;2023-03-23T07:08:19;13.20;99.90
22491;DHT22;11412;50.802;4.350;2023-03-23T07:10:46;13.20;99.90
22491;DHT22;11412;50.802;4.350;2023-03-23T07:13:12;13.10;99.90
22491;DHT22;11412;50.802;4.350;2023-03-23T07:15:39;13.20;99.90
22491;DHT22;11412;50.802;4.350;2023-03-23T07:18:05;13.10;99.90
22491;DHT22;11412;50.802;4.350;2023-03-23T07:20:30;13.20;99.90
22491;DHT22;11412;50.802;4.350;2023-03-23T07:22:56;13.10;99.90
22491;DHT22;11412;50.802;4.350;2023-03-23T07:25:22;12.90;99.90
22491;DHT22;11412;50.802;4.350;2023-03-23T07:27:48;12.90;99.90
22491;DHT22;11412;50.802;4.350;2023-03-23T07:30:14;12.80;99.90
22491;DHT22;11412;50.802;4.350;2023-03-23T07:32:40;12.30;99.90
22491;DHT22;11412;50.802;4.350;2023-03-23T07:35:08;12.20;99.90
22491;DHT22;11412;50.802;4.350;2023-03-23T07:37:34;12.00;99.90
22491;DHT22;11412;50.802;4.350;2023-03-23T07:40:02;11.80;99.90
22491;DHT22;11412;50.802;4.350;2023-03-23T07:42:44;11.80;99.90
22491;DHT22;11412;50.802;4.350;2023-03-23T07:45:11;11.90;99.90
22491;DHT22;11412;50.802;4.350;2023-03-23T07:47:38;12.00;99.90
22491;DHT22;11412;50.802;4.350;2023-03-23T07:50:05;12.20;99.90
22491;DHT22;11412;50.802;4.350;2023-03-23T07:52:32;12.20;99.90
22491;DHT22;11412;50.802;4.350;2023-03-23T07:54:58;12.20;99.90
22491;DHT22;11412;50.802;4.350;2023-03-23T07:57:24;12.20;99.90
22491;DHT22;11412;50.802;4.350;2023-03-23T07:59:50;12.20;99.90
22491;DHT22;11412;50.802;4.350;2023-03-23T08:02:16;12.50;99.90
22491;DHT22;11412;50.802;4.350;2023-03-23T08:04:42;12.50;99.90
22491;DHT22;11412;50.802;4.350;2023-03-23T08:07:08;12.30;99.90
22491;DHT22;11412;50.802;4.350;2023-03-23T08:09:33;12.20;99.90
22491;DHT22;11412;50.802;4.350;2023-03-23T08:11:59;12.40;99.90
22491;DHT22;11412;50.802;4.350;2023-03-23T08:14:25;12.40;99.90
22491;DHT22;11412;50.802;4.350;2023-03-23T08:16:53;12.40;99.90
22491;DHT22;11412;50.802;4.350;2023-03-23T08:19:20;12.60;99.90
22491;DHT22;11412;50.802;4.350;2023-03-23T08:21:46;12.60;99.90
22491;DHT22;11412;50.802;4.350;2023-03-23T08:24:13;12.40;99.90
22491;DHT22;11412;50.802;4.350;2023-03-23T08:26:39;12.40;99.90
22491;DHT22;11412;50.802;4.350;2023-03-23T08:29:05;12.40;99.90
22491;DHT22;11412;50.802;4.350;2023-03-23T08:31:32;12.30;99.90
22491;DHT22;11412;50.802;4.350;2023-03-23T08:34:00;12.30;99.90
22491;DHT22;11412;50.802;4.350;2023-03-23T08:36:26;12.20;99.90
22491;DHT22;11412;50.802;4.350;2023-03-23T08:38:53;12.10;99.90
22491;DHT22;11412;50.802;4.350;2023-03-23T08:41:19;11.90;99.90
22491;DHT22;11412;50.802;4.350;2023-03-23T08:43:45;11.90;99.90
22491;DHT22;11412;50.802;4.350;2023-03-23T08:46:11;12.00;99.90
22491;DHT22;11412;50.802;4.350;2023-03-23T08:48:37;11.90;99.90
22491;DHT22;11412;50.802;4.350;2023-03-23T08:51:05;11.90;99.90
22491;DHT22;11412;50.802;4.350;2023-03-23T08:53:31;11.90;99.90
22491;DHT22;11412;50.802;4.350;2023-03-23T08:56:09;12.10;99.90
22491;DHT22;11412;50.802;4.350;2023-03-23T08:58:36;12.40;99.90
22491;DHT22;11412;50.802;4.350;2023-03-23T09:01:02;12.30;99.90
22491;DHT22;11412;50.802;4.350;2023-03-23T09:03:28;12.50;99.90
22491;DHT22;11412;50.802;4.350;2023-03-23T09:05:58;12.30;99.90
22491;DHT22;11412;50.802;4.350;2023-03-23T09:08:24;12.10;99.90
22491;DHT22;11412;50.802;4.350;2023-03-23T09:10:50;12.20;99.90
22491;DHT22;11412;50.802;4.350;2023-03-23T09:13:16;12.10;99.90
22491;DHT22;11412;50.802;4.350;2023-03-23T09:15:42;12.20;99.90
22491;DHT22;11412;50.802;4.350;2023-03-23T09:18:07;12.40;99.90
22491;DHT22;11412;50.802;4.350;2023-03-23T09:20:33;12.30;99.90
22491;DHT22;11412;50.802;4.350;2023-03-23T09:22:59;12.00;99.90
22491;DHT22;11412;50.802;4.350;2023-03-23T09:25:27;12.10;99.90
22491;DHT22;11412;50.802;4.350;2023-03-23T09:27:55;12.10;99.90
22491;DHT22;11412;50.802;4.350;2023-03-23T09:30:23;12.00;99.90
22491;DHT22;11412;50.802;4.350;2023-03-23T09:32:50;12.00;99.90
22491;DHT22;11412;50.802;4.350;2023-03-23T09:35:16;12.30;99.90
22491;DHT22;11412;50.802;4.350;2023-03-23T09:37:44;12.50;99.90
22491;DHT22;11412;50.802;4.350;2023-03-23T09:40:14;12.90;99.90
22491;DHT22;11412;50.802;4.350;2023-03-23T09:45:25;13.40;99.90
22491;DHT22;11412;50.802;4.350;2023-03-23T09:48:24;13.60;99.90
22491;DHT22;11412;50.802;4.350;2023-03-23T09:50:55;13.70;99.90
22491;DHT22;11412;50.802;4.350;2023-03-23T09:53:45;14.10;99.90
22491;DHT22;11412;50.802;4.350;2023-03-23T09:56:14;14.50;99.90
22491;DHT22;11412;50.802;4.350;2023-03-23T10:01:47;14.80;99.90
22491;DHT22;11412;50.802;4.350;2023-03-23T10:07:24;14.10;99.90
22491;DHT22;11412;50.802;4.350;2023-03-23T10:09:56;14.10;99.90
22491;DHT22;11412;50.802;4.350;2023-03-23T10:12:55;14.20;99.90
22491;DHT22;11412;50.802;4.350;2023-03-23T10:15:34;14.30;99.90
22491;DHT22;11412;50.802;4.350;2023-03-23T10:18:14;14.50;99.90
22491;DHT22;11412;50.802;4.350;2023-03-23T10:21:00;14.50;99.90
22491;DHT22;11412;50.802;4.350;2023-03-23T10:31:39;14.60;99.90
22491;DHT22;11412;50.802;4.350;2023-03-23T10:35:09;14.30;99.90
22491;DHT22;11412;50.802;4.350;2023-03-23T10:37:25;14.50;99.90
22491;DHT22;11412;50.802;4.350;2023-03-23T10:39:54;14.80;99.90
22491;DHT22;11412;50.802;4.350;2023-03-23T10:42:46;14.70;99.90
22491;DHT22;11412;50.802;4.350;2023-03-23T10:50:29;14.80;99.90
22491;DHT22;11412;50.802;4.350;2023-03-23T10:52:57;15.00;99.90
22491;DHT22;11412;50.802;4.350;2023-03-23T10:55:24;15.00;99.90
22491;DHT22;11412;50.802;4.350;2023-03-23T10:58:05;15.10;99.90
22491;DHT22;11412;50.802;4.350;2023-03-23T11:00:31;15.30;99.90
22491;DHT22;11412;50.802;4.350;2023-03-23T11:05:27;15.80;99.90
22491;DHT22;11412;50.802;4.350;2023-03-23T11:07:59;15.90;99.90
22491;DHT22;11412;50.802;4.350;2023-03-23T11:10:28;16.20;99.90
22491;DHT22;11412;50.802;4.350;2023-03-23T11:12:58;16.20;99.90
22491;DHT22;11412;50.802;4.350;2023-03-23T11:15:30;15.90;99.90
22491;DHT22;11412;50.802;4.350;2023-03-23T11:17:59;16.00;99.90
22491;DHT22;11412;50.802;4.350;2023-03-23T11:20:27;16.20;99.90
22491;DHT22;11412;50.802;4.350;2023-03-23T11:22:54;16.30;99.90
22491;DHT22;11412;50.802;4.350;2023-03-23T11:25:20;16.20;99.90
22491;DHT22;11412;50.802;4.350;2023-03-23T11:27:46;15.80;99.90
22491;DHT22;11412;50.802;4.350;2023-03-23T11:30:30;15.70;99.90
22491;DHT22;11412;50.802;4.350;2023-03-23T11:32:59;16.30;99.90
22491;DHT22;11412;50.802;4.350;2023-03-23T11:35:27;16.50;99.90
22491;DHT22;11412;50.802;4.350;2023-03-23T11:37:58;17.00;99.90
22491;DHT22;11412;50.802;4.350;2023-03-23T11:40:30;17.20;99.90
22491;DHT22;11412;50.802;4.350;2023-03-23T11:45:45;17.10;99.90
22491;DHT22;11412;50.802;4.350;2023-03-23T11:51:15;16.80;99.90
22491;DHT22;11412;50.802;4.350;2023-03-23T11:54:26;17.00;99.90
22491;DHT22;11412;50.802;4.350;2023-03-23T11:56:53;17.40;99.90
22491;DHT22;11412;50.802;4.350;2023-03-23T11:59:29;17.40;99.90
22491;DHT22;11412;50.802;4.350;2023-03-23T12:04:53;18.00;99.90
22491;DHT22;11412;50.802;4.350;2023-03-23T12:10:30;18.00;99.90
22491;DHT22;11412;50.802;4.350;2023-03-23T12:16:17;18.30;99.90
22491;DHT22;11412;50.802;4.350;2023-03-23T12:21:44;18.60;99.90
22491;DHT22;11412;50.802;4.350;2023-03-23T12:24:24;18.50;99.90
22491;DHT22;11412;50.802;4.350;2023-03-23T12:27:13;18.50;99.90
22491;DHT22;11412;50.802;4.350;2023-03-23T12:29:58;18.60;99.90
22491;DHT22;11412;50.802;4.350;2023-03-23T12:32:56;18.40;99.90
22491;DHT22;11412;50.802;4.350;2023-03-23T12:35:34;18.30;99.90
22491;DHT22;11412;50.802;4.350;2023-03-23T12:46:14;17.80;99.90
22491;DHT22;11412;50.802;4.350;2023-03-23T12:52:04;17.80;99.90
22491;DHT22;11412;50.802;4.350;2023-03-23T12:59:49;18.50;99.90
22491;DHT22;11412;50.802;4.350;2023-03-23T13:02:28;18.30;99.90
22491;DHT22;11412;50.802;4.350;2023-03-23T13:08:11;18.50;99.90
22491;DHT22;11412;50.802;4.350;2023-03-23T13:10:48;18.50;99.90
22491;DHT22;11412;50.802;4.350;2023-03-23T13:13:20;18.60;99.90
22491;DHT22;11412;50.802;4.350;2023-03-23T13:16:11;18.70;99.90
22491;DHT22;11412;50.802;4.350;2023-03-23T13:23:52;19.00;99.90
22491;DHT22;11412;50.802;4.350;2023-03-23T13:26:21;19.30;99.90
22491;DHT22;11412;50.802;4.350;2023-03-23T13:31:31;19.40;99.90
22491;DHT22;11412;50.802;4.350;2023-03-23T13:34:04;19.00;99.90
22491;DHT22;11412;50.802;4.350;2023-03-23T13:36:43;18.50;99.90
22491;DHT22;11412;50.802;4.350;2023-03-23T13:39:37;18.30;99.90
22491;DHT22;11412;50.802;4.350;2023-03-23T13:44:42;18.40;99.90
22491;DHT22;11412;50.802;4.350;2023-03-23T13:50:11;17.90;99.90
22491;DHT22;11412;50.802;4.350;2023-03-23T13:52:53;17.70;99.90
22491;DHT22;11412;50.802;4.350;2023-03-23T14:03:25;16.50;99.90
22491;DHT22;11412;50.802;4.350;2023-03-23T14:08:38;16.00;99.90
22491;DHT22;11412;50.802;4.350;2023-03-23T14:11:21;15.80;99.90
22491;DHT22;11412;50.802;4.350;2023-03-23T14:16:42;15.60;99.90
22491;DHT22;11412;50.802;4.350;2023-03-23T14:21:51;16.00;99.90
22491;DHT22;11412;50.802;4.350;2023-03-23T14:24:31;16.50;99.90
22491;DHT22;11412;50.802;4.350;2023-03-23T14:27:14;16.50;99.90
22491;DHT22;11412;50.802;4.350;2023-03-23T14:29:40;16.50;99.90
22491;DHT22;11412;50.802;4.350;2023-03-23T14:32:17;16.60;99.90
22491;DHT22;11412;50.802;4.350;2023-03-23T14:34:47;16.50;99.90
22491;DHT22;11412;50.802;4.350;2023-03-23T14:37:15;16.40;99.90
22491;DHT22;11412;50.802;4.350;2023-03-23T14:39:45;15.90;99.90
22491;DHT22;11412;50.802;4.350;2023-03-23T14:42:14;16.00;99.90
22491;DHT22;11412;50.802;4.350;2023-03-23T14:44:43;16.20;99.90
22491;DHT22;11412;50.802;4.350;2023-03-23T14:47:27;16.30;99.90
22491;DHT22;11412;50.802;4.350;2023-03-23T14:49:57;16.30;99.90
22491;DHT22;11412;50.802;4.350;2023-03-23T14:52:26;16.40;99.90
22491;DHT22;11412;50.802;4.350;2023-03-23T14:54:51;16.50;99.90
22491;DHT22;11412;50.802;4.350;2023-03-23T14:57:28;16.50;99.90
22491;DHT22;11412;50.802;4.350;2023-03-23T14:59:55;17.20;99.90
22491;DHT22;11412;50.802;4.350;2023-03-23T15:05:17;17.70;99.90
22491;DHT22;11412;50.802;4.350;2023-03-23T15:07:43;18.40;99.90
22491;DHT22;11412;50.802;4.350;2023-03-23T15:10:12;18.30;99.90
22491;DHT22;11412;50.802;4.350;2023-03-23T15:12:39;18.00;99.90
22491;DHT22;11412;50.802;4.350;2023-03-23T15:15:07;18.00;99.90
22491;DHT22;11412;50.802;4.350;2023-03-23T15:17:45;17.90;99.90
22491;DHT22;11412;50.802;4.350;2023-03-23T15:22:48;17.70;99.90
22491;DHT22;11412;50.802;4.350;2023-03-23T15:25:30;17.60;99.90
22491;DHT22;11412;50.802;4.350;2023-03-23T15:28:06;17.50;99.90
22491;DHT22;11412;50.802;4.350;2023-03-23T15:30:35;17.20;99.90
22491;DHT22;11412;50.802;4.350;2023-03-23T15:33:11;17.10;99.90
22491;DHT22;11412;50.802;4.350;2023-03-23T15:35:41;17.00;99.90
22491;DHT22;11412;50.802;4.350;2023-03-23T15:38:24;16.80;99.90
22491;DHT22;11412;50.802;4.350;2023-03-23T15:40:56;16.60;99.90
22491;DHT22;11412;50.802;4.350;2023-03-23T15:43:28;16.60;99.90
22491;DHT22;11412;50.802;4.350;2023-03-23T15:48:49;16.70;99.90
22491;DHT22;11412;50.802;4.350;2023-03-23T15:51:17;16.60;99.90
22491;DHT22;11412;50.802;4.350;2023-03-23T15:53:44;16.60;99.90
22491;DHT22;11412;50.802;4.350;2023-03-23T15:56:12;16.60;99.90
22491;DHT22;11412;50.802;4.350;2023-03-23T15:58:38;16.80;99.90
22491;DHT22;11412;50.802;4.350;2023-03-23T16:01:11;16.80;99.90
22491;DHT22;11412;50.802;4.350;2023-03-23T16:06:10;16.50;99.90
22491;DHT22;11412;50.802;4.350;2023-03-23T16:08:37;16.50;99.90
22491;DHT22;11412;50.802;4.350;2023-03-23T16:11:08;16.60;99.90
22491;DHT22;11412;50.802;4.350;2023-03-23T16:13:34;16.60;99.90
22491;DHT22;11412;50.802;4.350;2023-03-23T16:15:59;16.60;99.90
22491;DHT22;11412;50.802;4.350;2023-03-23T16:18:25;16.70;99.90
22491;DHT22;11412;50.802;4.350;2023-03-23T16:20:50;16.70;99.90
22491;DHT22;11412;50.802;4.350;2023-03-23T16:23:17;16.70;99.90
22491;DHT22;11412;50.802;4.350;2023-03-23T16:25:42;16.60;99.90
22491;DHT22;11412;50.802;4.350;2023-03-23T16:28:12;16.70;99.90
22491;DHT22;11412;50.802;4.350;2023-03-23T16:30:39;16.70;99.90
22491;DHT22;11412;50.802;4.350;2023-03-23T16:33:05;16.70;99.90
22491;DHT22;11412;50.802;4.350;2023-03-23T16:35:33;16.70;99.90
22491;DHT22;11412;50.802;4.350;2023-03-23T16:38:00;16.80;99.90
22491;DHT22;11412;50.802;4.350;2023-03-23T16:40:26;16.90;99.90
22491;DHT22;11412;50.802;4.350;2023-03-23T16:42:52;16.80;99.90
22491;DHT22;11412;50.802;4.350;2023-03-23T16:45:18;16.70;99.90
22491;DHT22;11412;50.802;4.350;2023-03-23T16:47:45;16.60;99.90
22491;DHT22;11412;50.802;4.350;2023-03-23T16:50:14;16.60;99.90
22491;DHT22;11412;50.802;4.350;2023-03-23T16:52:41;16.60;99.90
22491;DHT22;11412;50.802;4.350;2023-03-23T16:55:08;16.10;99.90
22491;DHT22;11412;50.802;4.350;2023-03-23T16:57:35;16.20;99.90
22491;DHT22;11412;50.802;4.350;2023-03-23T17:00:04;16.40;99.90
22491;DHT22;11412;50.802;4.350;2023-03-23T17:02:31;16.50;99.90
22491;DHT22;11412;50.802;4.350;2023-03-23T17:04:57;16.40;99.90
22491;DHT22;11412;50.802;4.350;2023-03-23T17:07:23;16.40;99.90
22491;DHT22;11412;50.802;4.350;2023-03-23T17:09:49;16.20;99.90
22491;DHT22;11412;50.802;4.350;2023-03-23T17:12:15;16.20;99.90
22491;DHT22;11412;50.802;4.350;2023-03-23T17:14:40;16.00;99.90
22491;DHT22;11412;50.802;4.350;2023-03-23T17:17:07;16.10;99.90
22491;DHT22;11412;50.802;4.350;2023-03-23T17:19:32;16.00;99.90
22491;DHT22;11412;50.802;4.350;2023-03-23T17:21:58;16.20;99.90
22491;DHT22;11412;50.802;4.350;2023-03-23T17:24:24;16.00;99.90
22491;DHT22;11412;50.802;4.350;2023-03-23T17:26:51;16.00;99.90
22491;DHT22;11412;50.802;4.350;2023-03-23T17:29:18;16.10;99.90
22491;DHT22;11412;50.802;4.350;2023-03-23T17:31:43;16.00;99.90
22491;DHT22;11412;50.802;4.350;2023-03-23T17:34:09;16.10;99.90
22491;DHT22;11412;50.802;4.350;2023-03-23T17:36:35;15.90;99.90
22491;DHT22;11412;50.802;4.350;2023-03-23T17:39:01;15.90;99.90
22491;DHT22;11412;50.802;4.350;2023-03-23T17:41:27;16.20;99.90
22491;DHT22;11412;50.802;4.350;2023-03-23T17:43:52;16.10;99.90
22491;DHT22;11412;50.802;4.350;2023-03-23T17:46:18;15.90;99.90